createdAt,value
2019-05-06T00:02:43.473Z,97493.08
2019-05-06T00:05:51.551Z,97492.27
2019-05-06T00:08:59.556Z,97486.55
2019-05-06T00:12:07.508Z,97488.66
2019-05-06T00:15:15.569Z,97488.66
2019-05-06T00:18:24.509Z,97465.89
2019-05-06T00:21:35.561Z,97465.89
2019-05-06T00:24:54.670Z,97490.11
2019-05-06T00:28:26.595Z,97486.16
2019-05-06T00:31:35.377Z,97484.67
2019-05-06T00:34:43.724Z,97484.67
2019-05-06T00:37:53.579Z,97480.59
2019-05-06T00:41:04.622Z,97485.75
2019-05-06T00:44:14.296Z,97478.85
2019-05-06T00:47:21.936Z,97478.85
2019-05-06T00:50:29.910Z,97483.50
2019-05-06T00:53:39.248Z,97483.70
2019-05-06T00:56:47.468Z,97481.01
2019-05-06T00:59:55.406Z,97490.75
2019-05-06T01:03:04.303Z,97495.16
2019-05-06T01:06:14.190Z,97476.22
2019-05-06T01:09:23.395Z,97476.22
2019-05-06T01:12:31.446Z,97493.63
2019-05-06T01:15:38.293Z,97498.78
2019-05-06T01:18:46.580Z,97504.09
2019-05-06T01:21:54.399Z,97482.88
2019-05-06T01:25:01.474Z,97482.88
2019-05-06T01:28:09.362Z,97506.70
2019-05-06T01:31:17.587Z,97504.58
2019-05-06T01:34:25.541Z,97504.96
2019-05-06T01:37:34.752Z,97490.96
2019-05-06T01:40:54.606Z,97490.96
2019-05-06T01:44:04.255Z,97496.75
2019-05-06T01:47:14.391Z,97504.96
2019-05-06T01:50:23.541Z,97507.71
2019-05-06T01:53:33.762Z,97508.06
2019-05-06T01:56:41.604Z,97510.81
2019-05-06T01:59:50.013Z,97522.19
2019-05-06T02:02:58.249Z,97522.19
2019-05-06T02:06:06.559Z,97524.16
2019-05-06T02:09:17.970Z,97520.33
2019-05-06T02:12:26.276Z,97516.31
2019-05-06T02:15:35.573Z,97516.26
2019-05-06T02:18:44.809Z,97516.14
2019-05-06T02:22:14.460Z,97516.14
2019-05-06T02:25:30.241Z,97518.94
2019-05-06T02:28:40.372Z,97518.94
2019-05-06T02:32:21.138Z,97521.11
2019-05-06T02:35:26.378Z,97521.60
2019-05-06T02:38:46.020Z,97521.82
2019-05-06T02:41:43.567Z,97523.22
2019-05-06T02:44:54.027Z,97512.66
2019-05-06T02:48:26.247Z,97512.66
2019-05-06T02:51:35.040Z,97524.57
2019-05-06T02:54:43.043Z,97529.16
2019-05-06T02:57:53.684Z,97524.03
2019-05-06T03:01:03.628Z,97528.64
2019-05-06T03:04:13.249Z,97530.58
2019-05-06T03:07:23.321Z,97534.86
2019-05-06T03:10:32.873Z,97529.23
2019-05-06T03:13:43.756Z,97533.30
2019-05-06T03:16:53.766Z,97531.09
2019-05-06T03:20:04.192Z,97533.73
2019-05-06T03:23:14.252Z,97533.73
2019-05-06T03:26:23.545Z,97519.98
2019-05-06T03:29:33.402Z,97510.55
2019-05-06T03:33:20.250Z,97510.55
2019-05-06T03:36:06.439Z,97536.80
2019-05-06T03:39:03.152Z,97536.80
2019-05-06T03:42:16.044Z,97535.69
2019-05-06T03:45:42.878Z,97541.30
2019-05-06T03:48:53.096Z,97541.30
2019-05-06T03:52:02.755Z,97537.30
2019-05-06T03:55:13.843Z,97534.82
2019-05-06T03:58:26.307Z,97542.70
2019-05-06T04:01:33.375Z,97539.32
2019-05-06T04:04:43.795Z,97544.95
2019-05-06T04:07:53.082Z,97544.95
2019-05-06T04:11:02.941Z,97543.58
2019-05-06T04:14:13.697Z,97549.69
2019-05-06T04:17:33.545Z,97550.44
2019-05-06T04:20:48.251Z,97529.36
2019-05-06T04:24:05.269Z,97529.36
2019-05-06T04:27:42.777Z,97544.14
2019-05-06T04:30:50.284Z,97552.36
2019-05-06T04:34:10.063Z,97550.84
2019-05-06T04:37:09.376Z,97542.59
2019-05-06T04:40:18.836Z,97548.59
2019-05-06T04:43:27.292Z,97552.88
2019-05-06T04:46:36.450Z,97562.87
2019-05-06T04:49:44.356Z,97563.61
2019-05-06T04:53:05.893Z,97565.11
2019-05-06T04:56:14.690Z,97567.31
2019-05-06T04:59:23.235Z,97570.05
2019-05-06T05:02:33.654Z,97576.36
2019-05-06T05:05:44.930Z,97572.08
2019-05-06T05:08:53.210Z,97572.08
2019-05-06T05:12:07.516Z,97580.08
2019-05-06T05:15:25.717Z,97574.03
2019-05-06T05:18:42.494Z,97574.03
2019-05-06T05:21:52.242Z,97582.11
2019-05-06T05:25:03.258Z,97584.52
2019-05-06T05:28:10.239Z,97584.52
2019-05-06T05:31:18.550Z,97590.33
2019-05-06T05:34:37.198Z,97556.48
2019-05-06T05:37:37.558Z,97556.48
2019-05-06T05:40:45.548Z,97583.46
2019-05-06T05:44:32.412Z,97573.92
2019-05-06T05:51:06.096Z,97589.20
2019-05-06T05:54:14.249Z,97596.74
2019-05-06T05:57:22.650Z,97599.81
2019-05-06T06:00:32.514Z,97601.66
2019-05-06T06:03:42.199Z,97597.70
2019-05-06T06:06:52.001Z,97595.28
2019-05-06T06:10:18.084Z,97592.28
2019-05-06T06:13:26.097Z,97592.09
2019-05-06T06:16:45.239Z,97597.95
2019-05-06T06:19:59.089Z,97602.05
2019-05-06T06:23:16.280Z,97594.53
2019-05-06T06:26:24.531Z,97593.95
2019-05-06T06:29:32.498Z,97599.96
2019-05-06T06:32:41.932Z,97599.96
2019-05-06T06:36:02.842Z,97596.98
2019-05-06T06:39:16.251Z,97591.03
2019-05-06T06:42:24.361Z,97590.58
2019-05-06T06:45:32.683Z,97585.41
2019-05-06T06:48:43.062Z,97576.11
2019-05-06T06:51:53.228Z,97568.63
2019-05-06T06:55:02.384Z,97571.45
2019-05-06T06:58:26.218Z,97574.67
2019-05-06T07:01:44.223Z,97580.12
2019-05-06T07:05:24.787Z,97575.48
2019-05-06T07:08:33.993Z,97567.38
2019-05-06T07:11:34.279Z,97572.14
2019-05-06T07:14:42.909Z,97575.52
2019-05-06T07:17:52.503Z,97583.64
2019-05-06T07:21:06.599Z,97568.22
2019-05-06T07:24:15.425Z,97568.22
2019-05-06T07:27:25.684Z,97570.45
2019-05-06T07:30:34.580Z,97575.71
2019-05-06T07:33:43.030Z,97572.70
2019-05-06T07:36:52.481Z,97572.70
2019-05-06T07:40:03.041Z,97587.64
2019-05-06T07:43:29.585Z,97596.64
2019-05-06T07:46:44.643Z,97586.30
2019-05-06T07:49:53.240Z,97588.70
2019-05-06T07:53:07.549Z,97599.86
2019-05-06T07:56:15.618Z,97590.98
2019-05-06T07:59:23.577Z,97603.59
2019-05-06T08:02:32.090Z,97607.42
2019-05-06T08:05:55.228Z,97607.42
2019-05-06T08:08:53.634Z,97610.95
2019-05-06T08:12:02.796Z,97604.02
2019-05-06T08:15:12.660Z,97601.29
2019-05-06T08:18:22.572Z,97603.39
2019-05-06T08:21:32.686Z,97610.01
2019-05-06T08:24:42.255Z,97610.01
2019-05-06T08:27:49.707Z,97604.41
2019-05-06T08:30:58.223Z,97607.22
2019-05-06T08:34:06.404Z,97600.42
2019-05-06T08:37:28.383Z,97605.19
2019-05-06T08:40:36.358Z,97602.19
2019-05-06T08:43:44.415Z,97609.95
2019-05-06T08:46:53.289Z,97597.73
2019-05-06T08:50:07.270Z,97601.05
2019-05-06T08:53:24.381Z,97584.45
2019-05-06T08:56:35.549Z,97599.70
2019-05-06T08:59:43.646Z,97603.36
2019-05-06T09:02:53.017Z,97603.36
2019-05-06T09:06:03.185Z,97597.86
2019-05-06T09:09:12.997Z,97604.02
2019-05-06T09:12:22.376Z,97583.59
2019-05-06T09:15:29.641Z,97583.59
2019-05-06T09:18:37.563Z,97605.19
2019-05-06T09:21:46.494Z,97602.98
2019-05-06T09:24:55.521Z,97602.98
2019-05-06T09:28:13.163Z,97544.62
2019-05-06T09:31:24.455Z,97593.43
2019-05-06T09:34:42.890Z,97594.16
2019-05-06T09:37:53.379Z,97587.12
2019-05-06T09:41:04.951Z,97591.41
2019-05-06T09:44:12.413Z,97591.41
2019-05-06T09:47:48.634Z,97588.54
2019-05-06T09:50:56.566Z,97568.11
2019-05-06T09:54:23.746Z,97573.64
2019-05-06T09:57:34.250Z,97573.64
2019-05-06T10:00:45.573Z,97590.82
2019-05-06T10:03:54.275Z,97588.92
2019-05-06T10:07:02.863Z,97588.92
2019-05-06T10:10:10.641Z,97588.98
2019-05-06T10:13:18.636Z,97597.69
2019-05-06T10:16:26.586Z,97580.09
2019-05-06T10:19:34.658Z,97577.90
2019-05-06T10:22:43.138Z,97577.90
2019-05-06T10:25:52.339Z,97598.34
2019-05-06T10:29:22.296Z,97583.21
2019-05-06T10:32:36.254Z,97583.21
2019-05-06T10:35:44.421Z,97591.38
2019-05-06T10:38:58.843Z,97590.45
2019-05-06T10:42:13.313Z,97579.21
2019-05-06T10:45:32.389Z,97577.95
2019-05-06T10:48:42.400Z,97575.88
2019-05-06T10:51:58.542Z,97573.92
2019-05-06T10:55:06.579Z,97559.47
2019-05-06T10:58:14.553Z,97569.89
2019-05-06T11:01:33.087Z,97565.42
2019-05-06T11:04:42.630Z,97565.42
2019-05-06T11:07:52.157Z,97566.31
2019-05-06T11:11:12.476Z,97565.80
2019-05-06T11:14:09.532Z,97568.39
2019-05-06T11:17:17.691Z,97541.47
2019-05-06T11:20:25.540Z,97541.47
2019-05-06T11:23:33.938Z,97528.66
2019-05-06T11:26:45.253Z,97528.66
2019-05-06T11:29:55.241Z,97530.23
2019-05-06T11:33:13.041Z,97527.82
2019-05-06T11:36:46.410Z,97545.26
2019-05-06T11:39:53.333Z,97538.61
2019-05-06T11:43:01.611Z,97541.33
2019-05-06T11:46:11.740Z,97556.08
2019-05-06T11:49:18.430Z,97556.08
2019-05-06T11:52:26.334Z,97571.16
2019-05-06T11:55:38.791Z,97560.67
2019-05-06T11:58:53.182Z,97558.37
2019-05-06T12:02:02.795Z,97550.17
2019-05-06T12:05:12.531Z,97561.66
2019-05-06T12:08:22.173Z,97535.97
2019-05-06T12:11:30.563Z,97535.97
2019-05-06T12:14:38.535Z,97525.76
2019-05-06T12:17:46.409Z,97640.64
2019-05-06T12:21:07.967Z,97535.20
2019-05-06T12:24:04.432Z,97540.27
2019-05-06T12:27:14.255Z,97537.03
2019-05-06T12:30:24.258Z,97546.45
2019-05-06T12:33:36.233Z,97535.44
2019-05-06T12:36:44.100Z,97538.63
2019-05-06T12:39:55.577Z,97545.23
2019-05-06T12:43:22.544Z,97531.48
2019-05-06T12:46:43.566Z,97531.48
2019-05-06T12:49:53.417Z,97544.92
2019-05-06T12:53:01.374Z,97544.92
2019-05-06T12:56:09.602Z,97537.05
2019-05-06T12:59:17.561Z,97539.95
2019-05-06T13:02:25.640Z,97534.86
2019-05-06T13:05:33.578Z,97538.84
2019-05-06T13:08:56.813Z,97533.32
2019-05-06T13:11:52.360Z,97533.32
2019-05-06T13:15:03.301Z,97511.65
2019-05-06T13:18:11.535Z,97524.16
2019-05-06T13:21:22.209Z,97506.33
2019-05-06T13:24:29.491Z,97506.33
2019-05-06T13:27:37.590Z,97522.70
2019-05-06T13:30:45.529Z,97503.35
2019-05-06T13:34:02.826Z,97520.67
2019-05-06T13:37:12.734Z,97524.73
2019-05-06T13:40:19.811Z,97524.73
2019-05-06T13:43:35.272Z,97526.98
2019-05-06T13:46:54.589Z,97525.15
2019-05-06T13:50:03.089Z,97513.23
2019-05-06T13:53:14.441Z,97513.23
2019-05-06T13:56:21.302Z,97519.51
2019-05-06T13:59:30.569Z,97523.78
2019-05-06T14:02:48.616Z,97528.11
2019-05-06T14:05:56.575Z,97519.73
2019-05-06T14:09:05.102Z,97519.73
2019-05-06T14:12:13.886Z,97522.31
2019-05-06T14:15:23.217Z,97517.60
2019-05-06T14:18:30.329Z,97523.63
2019-05-06T14:21:38.542Z,97520.23
2019-05-06T14:24:56.489Z,97517.13
2019-05-06T14:28:12.434Z,97517.13
2019-05-06T14:31:27.006Z,97517.34
2019-05-06T14:34:35.240Z,97517.34
2019-05-06T14:37:45.459Z,97514.20
2019-05-06T14:41:13.131Z,97519.78
2019-05-06T14:44:23.240Z,97520.96
2019-05-06T14:47:33.235Z,97517.16
2019-05-06T14:50:46.078Z,97519.96
2019-05-06T14:53:52.981Z,97527.50
2019-05-06T14:57:08.596Z,97525.42
2019-05-06T15:00:19.248Z,97530.00
2019-05-06T15:03:27.511Z,97530.00
2019-05-06T15:06:36.239Z,97531.61
2019-05-06T15:09:58.556Z,97531.54
2019-05-06T15:12:55.511Z,97535.45
2019-05-06T15:16:03.802Z,97526.28
2019-05-06T15:19:12.846Z,97526.28
2019-05-06T15:22:22.636Z,97528.30
2019-05-06T15:25:33.115Z,97529.85
2019-05-06T15:28:42.550Z,97520.06
2019-05-06T15:32:08.246Z,97522.13
2019-05-06T15:35:52.470Z,97525.43
2019-05-06T15:39:02.400Z,97527.41
2019-05-06T15:42:12.901Z,97528.69
2019-05-06T15:45:21.973Z,97530.97
2019-05-06T15:48:33.045Z,97533.77
2019-05-06T15:51:42.749Z,97529.09
2019-05-06T15:54:52.449Z,97534.05
2019-05-06T15:58:00.569Z,97535.80
2019-05-06T16:01:09.551Z,97530.98
2019-05-06T16:04:17.737Z,97542.45
2019-05-06T16:07:26.273Z,97542.45
2019-05-06T16:10:51.348Z,97518.75
2019-05-06T16:13:45.116Z,97518.75
2019-05-06T16:16:53.075Z,97536.34
2019-05-06T16:20:02.749Z,97538.78
2019-05-06T16:23:42.405Z,97541.17
2019-05-06T16:26:52.687Z,97535.77
2019-05-06T16:30:03.461Z,97535.77
2019-05-06T16:33:18.800Z,97536.23
2019-05-06T16:36:25.642Z,97529.96
2019-05-06T16:39:37.420Z,97531.87
2019-05-06T16:42:45.846Z,97534.77
2019-05-06T16:45:54.044Z,97532.83
2019-05-06T16:49:03.971Z,97536.14
2019-05-06T16:52:13.020Z,97532.83
2019-05-06T16:55:33.727Z,97534.09
2019-05-06T16:58:52.714Z,97531.57
2019-05-06T17:02:07.265Z,97533.02
2019-05-06T17:05:33.707Z,97529.56
2019-05-06T17:08:42.517Z,97528.86
2019-05-06T17:11:51.729Z,97525.47
2019-05-06T17:15:03.337Z,97529.77
2019-05-06T17:18:15.259Z,97519.23
2019-05-06T17:21:24.608Z,97519.23
2019-05-06T17:24:33.370Z,97532.19
2019-05-06T17:27:43.493Z,97533.78
2019-05-06T17:31:13.245Z,97523.47
2019-05-06T17:34:26.251Z,97526.11
2019-05-06T17:37:52.744Z,97530.98
2019-05-06T17:41:02.993Z,97526.98
2019-05-06T17:44:13.927Z,97531.21
2019-05-06T17:47:32.083Z,97531.75
2019-05-06T17:50:42.038Z,97523.26
2019-05-06T17:53:53.266Z,97530.27
2019-05-06T17:57:04.648Z,97532.58
2019-05-06T18:00:14.260Z,97528.52
2019-05-06T18:03:24.908Z,97529.23
2019-05-06T18:06:36.701Z,97528.31
2019-05-06T18:09:49.172Z,97528.56
2019-05-06T18:12:57.724Z,97527.23
2019-05-06T18:16:09.083Z,97539.77
2019-05-06T18:19:18.166Z,97541.86
2019-05-06T18:22:26.585Z,97544.74
2019-05-06T18:25:34.593Z,97546.84
2019-05-06T18:28:46.703Z,97546.84
2019-05-06T18:31:54.722Z,97555.88
2019-05-06T18:35:02.915Z,97548.44
2019-05-06T18:38:11.131Z,97551.52
2019-05-06T18:41:20.774Z,97558.31
2019-05-06T18:44:28.927Z,97559.54
2019-05-06T18:47:38.168Z,97561.07
2019-05-06T18:50:46.638Z,97567.33
2019-05-06T18:53:56.414Z,97570.41
2019-05-06T18:57:06.090Z,97570.41
2019-05-06T19:00:16.032Z,97579.59
2019-05-06T19:03:27.634Z,97581.34
2019-05-06T19:06:36.636Z,97589.61
2019-05-06T19:10:03.190Z,97597.23
2019-05-06T19:13:12.687Z,97600.39
2019-05-06T19:16:22.346Z,97600.39
2019-05-06T19:19:34.180Z,97595.59
2019-05-06T19:22:43.112Z,97609.88
2019-05-06T19:25:52.594Z,97619.80
2019-05-06T19:29:04.354Z,97615.36
2019-05-06T19:32:12.341Z,97615.36
2019-05-06T19:35:22.260Z,97614.19
2019-05-06T19:38:33.570Z,97614.19
2019-05-06T19:41:39.372Z,97619.97
2019-05-06T19:44:48.343Z,97628.47
2019-05-06T19:47:58.010Z,97621.98
2019-05-06T19:51:07.661Z,97629.66
2019-05-06T19:54:18.538Z,97629.66
2019-05-06T19:57:26.944Z,97633.59
2019-05-06T20:00:35.051Z,97633.59
2019-05-06T20:03:46.759Z,97629.09
2019-05-06T20:07:18.439Z,97635.63
2019-05-06T20:10:42.037Z,97634.06
2019-05-06T20:13:52.440Z,97630.13
2019-05-06T20:17:00.551Z,97629.37
2019-05-06T20:20:13.508Z,97610.63
2019-05-06T20:23:18.847Z,97610.63
2019-05-06T20:26:27.297Z,97617.65
2019-05-06T20:29:38.204Z,97618.47
2019-05-06T20:32:44.577Z,97619.61
2019-05-06T20:35:52.940Z,97624.77
2019-05-06T20:39:02.491Z,97624.77
2019-05-06T20:42:15.946Z,97624.52
2019-05-06T20:45:24.333Z,97623.19
2019-05-06T20:48:32.533Z,97620.25
2019-05-06T20:51:42.433Z,97624.02
2019-05-06T20:54:50.127Z,97613.54
2019-05-06T20:57:58.156Z,97613.80
2019-05-06T21:01:06.645Z,97613.82
2019-05-06T21:04:16.566Z,97615.17
2019-05-06T21:07:26.238Z,97612.23
2019-05-06T21:10:35.751Z,97606.58
2019-05-06T21:13:43.536Z,97606.58
2019-05-06T21:16:51.608Z,97611.70
2019-05-06T21:19:59.548Z,97615.73
2019-05-06T21:23:07.659Z,97610.08
2019-05-06T21:26:15.553Z,97610.08
2019-05-06T21:29:23.675Z,97607.12
2019-05-06T21:32:33.006Z,97607.12
2019-05-06T21:35:42.638Z,97613.58
2019-05-06T21:38:52.445Z,97611.43
2019-05-06T21:42:02.038Z,97593.16
2019-05-06T21:45:12.592Z,97593.16
2019-05-06T21:48:22.306Z,97619.77
2019-05-06T21:51:32.712Z,97618.68
2019-05-06T21:54:43.260Z,97608.47
2019-05-06T21:57:52.945Z,97610.91
2019-05-06T22:01:05.899Z,97609.56
2019-05-06T22:04:14.363Z,97606.31
2019-05-06T22:07:24.321Z,97609.00
2019-05-06T22:10:32.675Z,97607.66
2019-05-06T22:13:42.588Z,97603.38
2019-05-06T22:16:50.553Z,97607.66
2019-05-06T22:19:58.540Z,97596.92
2019-05-06T22:23:06.578Z,97599.08
2019-05-06T22:26:16.298Z,97600.14
2019-05-06T22:29:24.579Z,97600.14
2019-05-06T22:32:35.264Z,97592.89
2019-05-06T22:35:45.534Z,97592.89
2019-05-06T22:38:53.617Z,97583.22
2019-05-06T22:42:02.679Z,97583.22
2019-05-06T22:45:12.555Z,97581.33
2019-05-06T22:48:22.210Z,97574.56
2019-05-06T22:51:32.306Z,97574.56
2019-05-06T22:54:39.475Z,97569.99
2019-05-06T22:57:47.553Z,97569.72
2019-05-06T23:00:56.614Z,97561.05
2019-05-06T23:04:05.031Z,97567.75
2019-05-06T23:07:14.433Z,97567.75
2019-05-06T23:10:24.826Z,97571.02
2019-05-06T23:13:32.709Z,97566.08
2019-05-06T23:16:42.446Z,97566.08
2019-05-06T23:19:52.783Z,97565.20
2019-05-06T23:23:02.411Z,97571.38
2019-05-06T23:26:24.402Z,97571.38
2019-05-06T23:29:32.573Z,97565.12
2019-05-06T23:32:42.259Z,97551.33
2019-05-06T23:35:51.810Z,97551.33
2019-05-06T23:40:00.589Z,97556.67
2019-05-06T23:44:03.250Z,97538.23
2019-05-06T23:48:07.053Z,97538.23
2019-05-06T23:52:12.036Z,97554.34
2019-05-06T23:56:14.927Z,97552.09
2019-05-06T23:59:22.670Z,97550.25
